»·PEaware :: SWA6338 KPHX-KSNA

SWA6338 :: KPHX-KSNA

FLIGHT INFORMATION

Flight Status: Arrived
Operator:
Southwest Airlines
More flights by this operator :: More flights under this callsign
Pilot: Michael F. (10210)
Aircraft: BOEING 737-800
(B738)
More flights by this aircraft type
Origin: KPHX Phoenix Sky Harbor Intl
United States
Destination: KSNA John Wayne-Orange Co
United States
More flights between these airports :: More routes between these airports
Route: +IZZZO6 HRRBR EMLLD DSNEE1
File this flight plan on PilotEdge
Remarks:
Altitude:
(Current/Filed)
32,000ft
Speed:
(Current/Filed)
460kts
Departed: 08-Oct-17 02:29 PM
Arrived: 08-Oct-17 03:24 PM
Distance/Time
Traveled:
293nm/0:55
Distance/Time
To Go:
Arrived

Flight Plot

Page will automatically refresh every two minutes.

Flight plan parsing failed; only flown route is shown


Map Options




Map Legend


Flown Route
Filed Route
Departure Airport
Arrival Airport
Navaid (VOR, NDB)
Fix

Horizontal Profiles

Position Reports

Time Latitude Longitude Heading Altitude Ground
Speed
08-Oct-17 13:44 33.436861 -112.002494 90 1143ft 0kts
08-Oct-17 13:45 33.436861 -112.002494 90 1143ft 0kts
08-Oct-17 13:46 33.436861 -112.002494 90 1143ft 0kts
08-Oct-17 13:47 33.436861 -112.002494 90 1143ft 0kts
08-Oct-17 13:48 33.436861 -112.002494 90 1143ft 0kts
08-Oct-17 13:49 33.436861 -112.002494 90 1143ft 0kts
08-Oct-17 13:50 33.436861 -112.002494 90 1143ft 0kts
08-Oct-17 13:51 33.436861 -112.002494 90 1143ft 0kts
08-Oct-17 13:52 33.436861 -112.002494 90 1143ft 0kts
08-Oct-17 13:53 33.436861 -112.002494 90 1143ft 0kts
08-Oct-17 13:54 33.436861 -112.002494 90 1143ft 0kts
08-Oct-17 13:55 33.436861 -112.002494 90 1143ft 0kts
08-Oct-17 13:56 33.436861 -112.002494 90 1143ft 0kts
08-Oct-17 13:57 33.436861 -112.002494 90 1143ft 0kts
08-Oct-17 13:58 33.436861 -112.002494 90 1143ft 0kts
08-Oct-17 13:59 33.436861 -112.002494 90 1143ft 0kts
08-Oct-17 14:00 33.436861 -112.002494 90 1143ft 0kts
08-Oct-17 14:01 33.436861 -112.002494 90 1143ft 0kts
08-Oct-17 14:02 33.436861 -112.002494 90 1143ft 0kts
08-Oct-17 14:03 33.436861 -112.002494 90 1143ft 0kts
08-Oct-17 14:04 33.436861 -112.002494 90 1143ft 0kts
08-Oct-17 14:05 33.436861 -112.002494 90 1143ft 0kts
08-Oct-17 14:06 33.436861 -112.002494 90 1143ft 0kts
08-Oct-17 14:07 33.436861 -112.002494 90 1143ft 0kts
08-Oct-17 14:08 33.436861 -112.002494 90 1143ft 0kts
08-Oct-17 14:09 33.436861 -112.002494 90 1143ft 0kts
08-Oct-17 14:10 33.436861 -112.002494 90 1143ft 0kts
08-Oct-17 14:11 33.436861 -112.002494 90 1143ft 0kts
08-Oct-17 14:12 33.436861 -112.002494 90 1143ft 0kts
08-Oct-17 14:13 33.436861 -112.002494 90 1143ft 0kts
08-Oct-17 14:14 33.436861 -112.002494 90 1143ft 0kts
08-Oct-17 14:15 33.436861 -112.002494 90 1143ft 0kts
08-Oct-17 14:16 33.436861 -112.002494 90 1143ft 0kts
08-Oct-17 14:17 33.436861 -112.002494 90 1143ft 0kts
08-Oct-17 14:18 33.436861 -112.002494 90 1143ft 0kts
08-Oct-17 14:19 33.436861 -112.002494 90 1143ft 0kts
08-Oct-17 14:20 33.436861 -112.002494 90 1143ft 0kts
08-Oct-17 14:21 33.436861 -112.002499 90 1143ft 0kts
08-Oct-17 14:22 33.436606 -112.003033 0 1143ft 2kts
08-Oct-17 14:23 33.436492 -112.003033 359 1143ft 0kts
08-Oct-17 14:24 33.436492 -112.003033 359 1143ft 0kts
08-Oct-17 14:25 33.436492 -112.003033 359 1143ft 0kts
08-Oct-17 14:26 33.438313 -112.003041 0 1143ft 0kts
08-Oct-17 14:27 33.438314 -112.003041 0 1143ft 0kts
08-Oct-17 14:28 33.439762 -112.002723 87 1143ft 19kts
08-Oct-17 14:29 33.439729 -111.996620 89 1143ft 19kts
08-Oct-17 14:30 33.439739 -111.991274 64 1143ft 7kts
08-Oct-17 14:31 33.439775 -111.991205 55 1143ft 0kts
08-Oct-17 14:32 33.440705 -111.991069 319 1143ft 9kts
08-Oct-17 14:33 33.440807 -112.000396 270 1143ft 112kts
08-Oct-17 14:34 33.441088 -112.058482 271 2829ft 211kts
08-Oct-17 14:35 33.444846 -112.133471 266 5111ft 255kts
08-Oct-17 14:36 33.444545 -112.225272 268 7804ft 283kts
08-Oct-17 14:37 33.445876 -112.320439 269 10735ft 294kts
08-Oct-17 14:38 33.447504 -112.427058 270 12669ft 333kts
08-Oct-17 14:39 33.449196 -112.540304 270 15323ft 346kts
08-Oct-17 14:40 33.450973 -112.657414 271 17862ft 358kts
08-Oct-17 14:41 33.452611 -112.778766 272 20125ft 371kts
08-Oct-17 14:42 33.471645 -112.902485 282 22180ft 383kts
08-Oct-17 14:43 33.495269 -113.028733 283 24089ft 393kts
08-Oct-17 14:44 33.519481 -113.158603 283 25853ft 403kts
08-Oct-17 14:45 33.544156 -113.290934 283 27426ft 412kts
08-Oct-17 14:46 33.568373 -113.423838 283 29478ft 405kts
08-Oct-17 14:47 33.592539 -113.555068 284 31342ft 400kts
08-Oct-17 14:48 33.616954 -113.685935 284 31692ft 400kts
08-Oct-17 14:49 33.640864 -113.815805 284 31701ft 399kts
08-Oct-17 14:50 33.679014 -113.940273 295 31694ft 397kts
08-Oct-17 14:51 33.725266 -114.060583 295 31676ft 397kts
08-Oct-17 14:52 33.762086 -114.185730 281 31673ft 400kts
08-Oct-17 14:53 33.778007 -114.317950 279 31668ft 400kts
08-Oct-17 14:54 33.793227 -114.450333 279 31660ft 400kts
08-Oct-17 14:56 33.808766 -114.583075 280 31660ft 400kts
08-Oct-17 14:57 33.823975 -114.715468 279 31662ft 400kts
08-Oct-17 14:58 33.838812 -114.848252 279 31662ft 400kts
08-Oct-17 14:59 33.853541 -114.980637 279 31664ft 400kts
08-Oct-17 15:00 33.868068 -115.112854 279 31668ft 399kts
08-Oct-17 15:01 33.882500 -115.245553 279 31674ft 399kts
08-Oct-17 15:02 33.897319 -115.377689 279 31679ft 399kts
08-Oct-17 15:03 33.911317 -115.508339 279 30521ft 388kts
08-Oct-17 15:04 33.924808 -115.635956 279 29201ft 380kts
08-Oct-17 15:05 33.934583 -115.766236 277 27088ft 400kts
08-Oct-17 15:06 33.944335 -115.902607 277 26735ft 411kts
08-Oct-17 15:06 33.952196 -116.016303 276 26449ft 401kts
08-Oct-17 15:08 33.962374 -116.167046 276 24641ft 376kts
08-Oct-17 15:08 33.956711 -116.270409 264 23728ft 368kts
08-Oct-17 15:10 33.938707 -116.414337 264 22908ft 372kts
08-Oct-17 15:10 33.926044 -116.516205 264 21434ft 364kts
08-Oct-17 15:11 33.910885 -116.635138 263 19661ft 355kts
08-Oct-17 15:12 33.895790 -116.751198 263 17948ft 347kts
08-Oct-17 15:13 33.883514 -116.863350 264 16967ft 330kts
08-Oct-17 15:15 33.869054 -116.992457 263 14720ft 337kts
08-Oct-17 15:15 33.859166 -117.084399 264 13045ft 322kts
08-Oct-17 15:16 33.847742 -117.187966 263 11221ft 302kts
08-Oct-17 15:17 33.836755 -117.284918 263 9733ft 282kts
08-Oct-17 15:18 33.826543 -117.374250 263 8759ft 255kts
08-Oct-17 15:19 33.819393 -117.457137 273 7798ft 248kts
08-Oct-17 15:20 33.827625 -117.536017 277 6678ft 247kts
08-Oct-17 15:21 33.833529 -117.617010 269 5511ft 238kts
08-Oct-17 15:22 33.833056 -117.691281 269 4442ft 230kts
08-Oct-17 15:23 33.830436 -117.766613 245 3285ft 215kts
08-Oct-17 15:24 33.785351 -117.799378 206 2315ft 174kts
08-Oct-17 15:25 33.745985 -117.824282 207 1579ft 149kts
08-Oct-17 15:26 33.712635 -117.845418 207 863ft 127kts
08-Oct-17 15:27 33.683299 -117.864067 206 129ft 114kts
08-Oct-17 15:28 33.671223 -117.871645 207 64ft 24kts
08-Oct-17 15:29 33.669242 -117.871735 129 64ft 0kts
08-Oct-17 15:30 33.669559 -117.870448 40 64ft 14kts
08-Oct-17 15:31 33.673063 -117.867300 47 64ft 15kts
08-Oct-17 15:32 33.675404 -117.865662 27 64ft 1kts
08-Oct-17 15:33 33.676983 -117.864313 125 64ft 4kts
08-Oct-17 15:34 33.676792 -117.863921 118 64ft 0kts
08-Oct-17 15:35 33.676792 -117.863921 118 64ft 0kts
08-Oct-17 15:36 33.676792 -117.863921 118 64ft 0kts
08-Oct-17 15:37 33.676792 -117.863921 118 64ft 0kts
08-Oct-17 15:38 33.676792 -117.863921 118 64ft 0kts
08-Oct-17 15:39 33.676792 -117.863921 118 64ft 0kts
08-Oct-17 15:40 33.676792 -117.863921 118 64ft 0kts
08-Oct-17 15:41 33.676792 -117.863921 118 64ft 0kts
08-Oct-17 15:42 33.676792 -117.863921 118 64ft 0kts

Navigation Log

Ident Type
Flight plan parsing failed, navigation log unavailable